sensor_id;sensor_type;location;lat;lon;timestamp;temperature;humidity
11387;DHT22;5748;53.102;8.456;2023-01-19T00:00:49;6.90;64.60
11387;DHT22;5748;53.102;8.456;2023-01-19T00:03:16;7.10;64.80
11387;DHT22;5748;53.102;8.456;2023-01-19T00:05:43;6.80;64.40
11387;DHT22;5748;53.102;8.456;2023-01-19T00:08:13;6.80;64.60
11387;DHT22;5748;53.102;8.456;2023-01-19T00:10:41;6.80;64.60
11387;DHT22;5748;53.102;8.456;2023-01-19T00:13:09;6.80;64.50
11387;DHT22;5748;53.102;8.456;2023-01-19T00:15:53;6.80;64.40
11387;DHT22;5748;53.102;8.456;2023-01-19T00:18:23;6.80;64.40
11387;DHT22;5748;53.102;8.456;2023-01-19T00:20:51;6.80;64.30
11387;DHT22;5748;53.102;8.456;2023-01-19T00:23:19;6.80;64.30
11387;DHT22;5748;53.102;8.456;2023-01-19T00:25:58;6.80;64.40
11387;DHT22;5748;53.102;8.456;2023-01-19T00:28:25;6.80;64.40
11387;DHT22;5748;53.102;8.456;2023-01-19T00:30:52;6.80;64.50
11387;DHT22;5748;53.102;8.456;2023-01-19T00:33:43;6.80;64.40
11387;DHT22;5748;53.102;8.456;2023-01-19T00:36:13;6.80;64.50
11387;DHT22;5748;53.102;8.456;2023-01-19T00:41:58;6.80;64.50
11387;DHT22;5748;53.102;8.456;2023-01-19T00:44:45;6.90;64.70
11387;DHT22;5748;53.102;8.456;2023-01-19T00:47:12;6.80;64.50
11387;DHT22;5748;53.102;8.456;2023-01-19T00:49:42;6.70;64.50
11387;DHT22;5748;53.102;8.456;2023-01-19T00:52:09;6.70;64.50
11387;DHT22;5748;53.102;8.456;2023-01-19T00:54:38;6.90;64.80
11387;DHT22;5748;53.102;8.456;2023-01-19T00:57:05;6.70;64.70
11387;DHT22;5748;53.102;8.456;2023-01-19T00:59:47;6.70;64.70
11387;DHT22;5748;53.102;8.456;2023-01-19T01:02:14;6.70;64.80
11387;DHT22;5748;53.102;8.456;2023-01-19T01:04:41;6.80;64.80
11387;DHT22;5748;53.102;8.456;2023-01-19T01:07:08;6.80;64.80
11387;DHT22;5748;53.102;8.456;2023-01-19T01:09:42;7.00;65.00
11387;DHT22;5748;53.102;8.456;2023-01-19T01:12:09;7.00;64.90
11387;DHT22;5748;53.102;8.456;2023-01-19T01:14:37;6.80;65.10
11387;DHT22;5748;53.102;8.456;2023-01-19T01:17:04;6.80;64.80
11387;DHT22;5748;53.102;8.456;2023-01-19T01:19:51;6.80;64.80
11387;DHT22;5748;53.102;8.456;2023-01-19T01:22:18;6.80;64.80
11387;DHT22;5748;53.102;8.456;2023-01-19T01:24:47;6.80;65.50
11387;DHT22;5748;53.102;8.456;2023-01-19T01:27:14;6.80;64.80
11387;DHT22;5748;53.102;8.456;2023-01-19T01:29:50;6.80;64.90
11387;DHT22;5748;53.102;8.456;2023-01-19T01:32:17;6.80;65.20
11387;DHT22;5748;53.102;8.456;2023-01-19T01:34:44;6.80;64.90
11387;DHT22;5748;53.102;8.456;2023-01-19T01:37:12;6.80;64.90
11387;DHT22;5748;53.102;8.456;2023-01-19T01:39:39;6.80;65.10
11387;DHT22;5748;53.102;8.456;2023-01-19T01:42:18;7.20;65.50
11387;DHT22;5748;53.102;8.456;2023-01-19T01:44:53;6.80;65.20
11387;DHT22;5748;53.102;8.456;2023-01-19T01:47:33;6.80;65.20
11387;DHT22;5748;53.102;8.456;2023-01-19T01:50:07;7.10;65.50
11387;DHT22;5748;53.102;8.456;2023-01-19T01:52:39;6.80;65.20
11387;DHT22;5748;53.102;8.456;2023-01-19T01:55:20;6.80;65.20
11387;DHT22;5748;53.102;8.456;2023-01-19T01:57:51;6.80;65.30
11387;DHT22;5748;53.102;8.456;2023-01-19T02:00:22;6.80;65.30
11387;DHT22;5748;53.102;8.456;2023-01-19T02:02:54;6.80;65.30
11387;DHT22;5748;53.102;8.456;2023-01-19T02:05:23;6.80;65.30
11387;DHT22;5748;53.102;8.456;2023-01-19T02:08:05;6.80;65.50
11387;DHT22;5748;53.102;8.456;2023-01-19T02:10:53;6.80;65.50
11387;DHT22;5748;53.102;8.456;2023-01-19T02:13:41;6.80;65.50
11387;DHT22;5748;53.102;8.456;2023-01-19T02:16:10;6.70;65.50
11387;DHT22;5748;53.102;8.456;2023-01-19T02:18:38;7.00;65.90
11387;DHT22;5748;53.102;8.456;2023-01-19T02:21:10;6.70;65.60
11387;DHT22;5748;53.102;8.456;2023-01-19T02:23:42;6.70;65.80
11387;DHT22;5748;53.102;8.456;2023-01-19T02:26:13;6.70;65.80
11387;DHT22;5748;53.102;8.456;2023-01-19T02:28:43;6.70;65.90
11387;DHT22;5748;53.102;8.456;2023-01-19T02:31:12;6.70;65.90
11387;DHT22;5748;53.102;8.456;2023-01-19T02:33:40;6.70;65.90
11387;DHT22;5748;53.102;8.456;2023-01-19T02:36:10;6.70;65.90
11387;DHT22;5748;53.102;8.456;2023-01-19T02:38:42;6.70;66.10
11387;DHT22;5748;53.102;8.456;2023-01-19T02:41:13;6.70;66.00
11387;DHT22;5748;53.102;8.456;2023-01-19T02:43:48;6.70;66.00
11387;DHT22;5748;53.102;8.456;2023-01-19T02:46:16;6.70;66.00
11387;DHT22;5748;53.102;8.456;2023-01-19T02:48:43;6.80;66.10
11387;DHT22;5748;53.102;8.456;2023-01-19T02:51:13;6.70;66.10
11387;DHT22;5748;53.102;8.456;2023-01-19T02:53:52;6.60;66.20
11387;DHT22;5748;53.102;8.456;2023-01-19T02:56:37;6.60;66.20
11387;DHT22;5748;53.102;8.456;2023-01-19T02:59:13;6.60;66.20
11387;DHT22;5748;53.102;8.456;2023-01-19T03:02:04;6.70;66.20
11387;DHT22;5748;53.102;8.456;2023-01-19T03:04:56;6.60;66.20
11387;DHT22;5748;53.102;8.456;2023-01-19T03:07:33;6.60;66.20
11387;DHT22;5748;53.102;8.456;2023-01-19T03:10:10;6.60;66.20
11387;DHT22;5748;53.102;8.456;2023-01-19T03:12:45;6.60;66.20
11387;DHT22;5748;53.102;8.456;2023-01-19T03:15:18;6.70;66.30
11387;DHT22;5748;53.102;8.456;2023-01-19T03:17:48;7.00;66.60
11387;DHT22;5748;53.102;8.456;2023-01-19T03:20:22;6.70;66.30
11387;DHT22;5748;53.102;8.456;2023-01-19T03:22:54;8.00;67.70
11387;DHT22;5748;53.102;8.456;2023-01-19T03:25:26;6.60;66.40
11387;DHT22;5748;53.102;8.456;2023-01-19T03:27:56;6.60;66.50
11387;DHT22;5748;53.102;8.456;2023-01-19T03:30:27;6.60;66.50
11387;DHT22;5748;53.102;8.456;2023-01-19T03:33:00;6.60;66.50
11387;DHT22;5748;53.102;8.456;2023-01-19T03:35:34;6.60;66.50
11387;DHT22;5748;53.102;8.456;2023-01-19T03:38:06;6.60;66.60
11387;DHT22;5748;53.102;8.456;2023-01-19T03:40:37;6.70;66.70
11387;DHT22;5748;53.102;8.456;2023-01-19T03:43:05;6.80;66.80
11387;DHT22;5748;53.102;8.456;2023-01-19T03:45:37;6.60;66.60
11387;DHT22;5748;53.102;8.456;2023-01-19T03:48:05;6.70;66.80
11387;DHT22;5748;53.102;8.456;2023-01-19T03:50:32;6.60;66.70
11387;DHT22;5748;53.102;8.456;2023-01-19T03:53:01;6.60;66.70
11387;DHT22;5748;53.102;8.456;2023-01-19T03:55:32;6.60;66.80
11387;DHT22;5748;53.102;8.456;2023-01-19T03:58:00;6.60;66.80
11387;DHT22;5748;53.102;8.456;2023-01-19T04:00:28;6.70;66.80
11387;DHT22;5748;53.102;8.456;2023-01-19T04:02:55;6.70;67.00
11387;DHT22;5748;53.102;8.456;2023-01-19T04:05:22;6.60;66.80
11387;DHT22;5748;53.102;8.456;2023-01-19T04:07:51;6.70;66.90
11387;DHT22;5748;53.102;8.456;2023-01-19T04:10:19;6.70;67.00
11387;DHT22;5748;53.102;8.456;2023-01-19T04:12:47;6.70;67.00
11387;DHT22;5748;53.102;8.456;2023-01-19T04:15:16;6.70;67.00
11387;DHT22;5748;53.102;8.456;2023-01-19T04:17:43;6.70;67.00
11387;DHT22;5748;53.102;8.456;2023-01-19T04:20:10;6.60;67.10
11387;DHT22;5748;53.102;8.456;2023-01-19T04:22:37;6.60;67.20
11387;DHT22;5748;53.102;8.456;2023-01-19T04:25:06;6.60;67.00
11387;DHT22;5748;53.102;8.456;2023-01-19T04:27:34;6.60;67.10
11387;DHT22;5748;53.102;8.456;2023-01-19T04:30:02;6.60;67.10
11387;DHT22;5748;53.102;8.456;2023-01-19T04:32:31;6.60;67.00
11387;DHT22;5748;53.102;8.456;2023-01-19T04:34:58;7.80;68.10
11387;DHT22;5748;53.102;8.456;2023-01-19T04:37:44;7.40;67.80
11387;DHT22;5748;53.102;8.456;2023-01-19T04:40:11;6.60;67.20
11387;DHT22;5748;53.102;8.456;2023-01-19T04:42:42;6.60;67.00
11387;DHT22;5748;53.102;8.456;2023-01-19T04:45:21;7.60;68.00
11387;DHT22;5748;53.102;8.456;2023-01-19T04:47:50;6.60;67.10
11387;DHT22;5748;53.102;8.456;2023-01-19T04:50:18;6.60;67.00
11387;DHT22;5748;53.102;8.456;2023-01-19T04:52:45;6.60;67.10
11387;DHT22;5748;53.102;8.456;2023-01-19T04:55:13;6.60;67.20
11387;DHT22;5748;53.102;8.456;2023-01-19T04:57:41;6.60;67.20
11387;DHT22;5748;53.102;8.456;2023-01-19T05:00:09;6.60;67.20
11387;DHT22;5748;53.102;8.456;2023-01-19T05:02:37;6.70;67.30
11387;DHT22;5748;53.102;8.456;2023-01-19T05:05:08;6.70;67.10
11387;DHT22;5748;53.102;8.456;2023-01-19T05:07:36;6.70;67.20
11387;DHT22;5748;53.102;8.456;2023-01-19T05:10:04;6.60;67.10
11387;DHT22;5748;53.102;8.456;2023-01-19T05:12:32;6.60;67.10
11387;DHT22;5748;53.102;8.456;2023-01-19T05:14:59;6.60;67.20
11387;DHT22;5748;53.102;8.456;2023-01-19T05:17:28;7.10;67.60
11387;DHT22;5748;53.102;8.456;2023-01-19T05:19:55;6.60;67.20
11387;DHT22;5748;53.102;8.456;2023-01-19T05:22:37;7.00;67.50
11387;DHT22;5748;53.102;8.456;2023-01-19T05:25:05;6.70;67.40
11387;DHT22;5748;53.102;8.456;2023-01-19T05:27:34;6.70;67.30
11387;DHT22;5748;53.102;8.456;2023-01-19T05:30:02;6.70;67.30
11387;DHT22;5748;53.102;8.456;2023-01-19T05:32:49;6.70;67.20
11387;DHT22;5748;53.102;8.456;2023-01-19T05:35:16;6.60;67.20
11387;DHT22;5748;53.102;8.456;2023-01-19T05:37:44;6.60;67.00
11387;DHT22;5748;53.102;8.456;2023-01-19T05:40:11;6.60;67.10
11387;DHT22;5748;53.102;8.456;2023-01-19T05:43:15;6.60;67.20
11387;DHT22;5748;53.102;8.456;2023-01-19T05:45:42;6.60;67.40
11387;DHT22;5748;53.102;8.456;2023-01-19T05:48:10;6.70;67.40
11387;DHT22;5748;53.102;8.456;2023-01-19T05:50:37;6.70;67.30
11387;DHT22;5748;53.102;8.456;2023-01-19T05:53:05;6.80;67.50
11387;DHT22;5748;53.102;8.456;2023-01-19T05:55:32;6.70;67.30
11387;DHT22;5748;53.102;8.456;2023-01-19T05:57:59;6.70;67.20
11387;DHT22;5748;53.102;8.456;2023-01-19T06:00:26;7.30;67.80
11387;DHT22;5748;53.102;8.456;2023-01-19T06:06:08;6.70;67.50
11387;DHT22;5748;53.102;8.456;2023-01-19T06:08:37;6.70;67.30
11387;DHT22;5748;53.102;8.456;2023-01-19T06:11:05;6.80;67.30
11387;DHT22;5748;53.102;8.456;2023-01-19T06:13:32;6.70;67.30
11387;DHT22;5748;53.102;8.456;2023-01-19T06:16:00;7.00;67.60
11387;DHT22;5748;53.102;8.456;2023-01-19T06:18:28;6.70;67.40
11387;DHT22;5748;53.102;8.456;2023-01-19T06:20:56;6.70;67.30
11387;DHT22;5748;53.102;8.456;2023-01-19T06:23:24;6.70;67.40
11387;DHT22;5748;53.102;8.456;2023-01-19T06:25:52;6.90;67.50
11387;DHT22;5748;53.102;8.456;2023-01-19T06:28:19;6.70;68.10
11387;DHT22;5748;53.102;8.456;2023-01-19T06:30:47;8.50;69.00
11387;DHT22;5748;53.102;8.456;2023-01-19T06:33:17;6.70;67.50
11387;DHT22;5748;53.102;8.456;2023-01-19T06:35:45;8.30;69.00
11387;DHT22;5748;53.102;8.456;2023-01-19T06:38:13;6.70;67.50
11387;DHT22;5748;53.102;8.456;2023-01-19T06:40:43;6.80;67.60
11387;DHT22;5748;53.102;8.456;2023-01-19T06:43:11;6.80;67.60
11387;DHT22;5748;53.102;8.456;2023-01-19T06:45:39;6.80;67.50
11387;DHT22;5748;53.102;8.456;2023-01-19T06:48:07;6.80;67.40
11387;DHT22;5748;53.102;8.456;2023-01-19T06:50:35;6.70;67.40
11387;DHT22;5748;53.102;8.456;2023-01-19T06:53:01;6.80;67.50
11387;DHT22;5748;53.102;8.456;2023-01-19T06:55:28;6.80;67.50
11387;DHT22;5748;53.102;8.456;2023-01-19T06:57:56;6.80;67.50
11387;DHT22;5748;53.102;8.456;2023-01-19T07:00:25;6.80;67.50
11387;DHT22;5748;53.102;8.456;2023-01-19T07:02:53;6.80;67.50
11387;DHT22;5748;53.102;8.456;2023-01-19T07:05:20;6.80;67.50
11387;DHT22;5748;53.102;8.456;2023-01-19T07:07:50;6.80;67.50
11387;DHT22;5748;53.102;8.456;2023-01-19T07:10:19;6.70;67.50
11387;DHT22;5748;53.102;8.456;2023-01-19T07:12:46;6.90;67.60
11387;DHT22;5748;53.102;8.456;2023-01-19T07:15:14;6.90;67.60
11387;DHT22;5748;53.102;8.456;2023-01-19T07:17:43;6.70;67.60
11387;DHT22;5748;53.102;8.456;2023-01-19T07:20:10;6.70;67.50
11387;DHT22;5748;53.102;8.456;2023-01-19T07:22:39;6.80;67.70
11387;DHT22;5748;53.102;8.456;2023-01-19T07:25:08;6.80;67.70
11387;DHT22;5748;53.102;8.456;2023-01-19T07:27:35;6.80;67.70
11387;DHT22;5748;53.102;8.456;2023-01-19T07:30:03;6.80;67.70
11387;DHT22;5748;53.102;8.456;2023-01-19T07:32:31;6.80;67.80
11387;DHT22;5748;53.102;8.456;2023-01-19T07:35:19;6.80;67.70
11387;DHT22;5748;53.102;8.456;2023-01-19T07:37:46;6.80;68.10
11387;DHT22;5748;53.102;8.456;2023-01-19T07:40:13;6.80;67.90
11387;DHT22;5748;53.102;8.456;2023-01-19T07:42:45;6.80;68.00
11387;DHT22;5748;53.102;8.456;2023-01-19T07:45:13;6.80;68.00
11387;DHT22;5748;53.102;8.456;2023-01-19T07:47:42;6.80;68.00
11387;DHT22;5748;53.102;8.456;2023-01-19T07:50:11;6.80;68.10
11387;DHT22;5748;53.102;8.456;2023-01-19T07:52:40;6.80;68.00
11387;DHT22;5748;53.102;8.456;2023-01-19T07:55:08;6.80;68.10
11387;DHT22;5748;53.102;8.456;2023-01-19T07:57:35;6.80;68.10
11387;DHT22;5748;53.102;8.456;2023-01-19T08:00:03;6.90;68.20
11387;DHT22;5748;53.102;8.456;2023-01-19T08:02:33;6.90;68.30
11387;DHT22;5748;53.102;8.456;2023-01-19T08:05:01;7.00;68.30
11387;DHT22;5748;53.102;8.456;2023-01-19T08:07:28;6.90;68.20
11387;DHT22;5748;53.102;8.456;2023-01-19T08:09:56;6.90;68.30
11387;DHT22;5748;53.102;8.456;2023-01-19T08:12:24;7.00;68.20
11387;DHT22;5748;53.102;8.456;2023-01-19T08:14:51;7.00;68.10
11387;DHT22;5748;53.102;8.456;2023-01-19T08:17:18;7.10;68.30
11387;DHT22;5748;53.102;8.456;2023-01-19T08:19:45;7.10;68.20
11387;DHT22;5748;53.102;8.456;2023-01-19T08:22:12;7.20;68.30
11387;DHT22;5748;53.102;8.456;2023-01-19T08:24:39;7.10;68.20
11387;DHT22;5748;53.102;8.456;2023-01-19T08:27:07;7.20;68.30
11387;DHT22;5748;53.102;8.456;2023-01-19T08:29:40;7.20;68.30
11387;DHT22;5748;53.102;8.456;2023-01-19T08:32:07;7.20;68.30
11387;DHT22;5748;53.102;8.456;2023-01-19T08:34:34;7.30;68.30
11387;DHT22;5748;53.102;8.456;2023-01-19T08:37:01;7.30;68.30
11387;DHT22;5748;53.102;8.456;2023-01-19T08:39:28;7.40;68.30
11387;DHT22;5748;53.102;8.456;2023-01-19T08:41:55;7.40;68.20
11387;DHT22;5748;53.102;8.456;2023-01-19T08:44:25;7.40;68.20
11387;DHT22;5748;53.102;8.456;2023-01-19T08:46:52;7.40;68.30
11387;DHT22;5748;53.102;8.456;2023-01-19T08:49:19;7.40;68.30
11387;DHT22;5748;53.102;8.456;2023-01-19T08:51:46;7.40;68.30
11387;DHT22;5748;53.102;8.456;2023-01-19T08:54:13;7.40;68.30
11387;DHT22;5748;53.102;8.456;2023-01-19T08:56:41;7.50;68.20
11387;DHT22;5748;53.102;8.456;2023-01-19T08:59:08;7.60;68.20
11387;DHT22;5748;53.102;8.456;2023-01-19T09:01:36;7.50;68.10
11387;DHT22;5748;53.102;8.456;2023-01-19T09:04:04;7.50;68.20
11387;DHT22;5748;53.102;8.456;2023-01-19T09:06:31;7.50;68.20
11387;DHT22;5748;53.102;8.456;2023-01-19T09:08:59;7.50;68.20
11387;DHT22;5748;53.102;8.456;2023-01-19T09:11:26;7.50;68.20
11387;DHT22;5748;53.102;8.456;2023-01-19T09:13:53;7.50;68.20
11387;DHT22;5748;53.102;8.456;2023-01-19T09:16:21;7.60;68.20
11387;DHT22;5748;53.102;8.456;2023-01-19T09:18:49;7.50;68.20
11387;DHT22;5748;53.102;8.456;2023-01-19T09:21:16;7.50;68.20
11387;DHT22;5748;53.102;8.456;2023-01-19T09:23:43;7.60;68.30
11387;DHT22;5748;53.102;8.456;2023-01-19T09:26:11;7.60;68.40
11387;DHT22;5748;53.102;8.456;2023-01-19T09:28:37;7.80;68.60
11387;DHT22;5748;53.102;8.456;2023-01-19T09:31:05;7.70;68.50
11387;DHT22;5748;53.102;8.456;2023-01-19T09:33:34;7.60;68.50
11387;DHT22;5748;53.102;8.456;2023-01-19T09:36:02;7.60;68.40
11387;DHT22;5748;53.102;8.456;2023-01-19T09:38:29;7.70;68.50
11387;DHT22;5748;53.102;8.456;2023-01-19T09:40:58;7.70;68.40
11387;DHT22;5748;53.102;8.456;2023-01-19T09:43:36;7.70;68.60
11387;DHT22;5748;53.102;8.456;2023-01-19T09:46:09;7.70;68.60
11387;DHT22;5748;53.102;8.456;2023-01-19T09:48:47;7.70;68.50
11387;DHT22;5748;53.102;8.456;2023-01-19T09:51:20;7.80;68.60
11387;DHT22;5748;53.102;8.456;2023-01-19T09:53:52;7.80;68.70
11387;DHT22;5748;53.102;8.456;2023-01-19T09:56:22;7.80;68.70
11387;DHT22;5748;53.102;8.456;2023-01-19T09:58:50;7.80;68.50
11387;DHT22;5748;53.102;8.456;2023-01-19T10:01:33;7.90;68.60
11387;DHT22;5748;53.102;8.456;2023-01-19T10:04:23;7.80;68.50
11387;DHT22;5748;53.102;8.456;2023-01-19T10:07:08;7.90;68.50
11387;DHT22;5748;53.102;8.456;2023-01-19T10:09:46;7.90;68.30
11387;DHT22;5748;53.102;8.456;2023-01-19T10:12:29;7.90;68.40
11387;DHT22;5748;53.102;8.456;2023-01-19T10:15:11;7.90;68.50
11387;DHT22;5748;53.102;8.456;2023-01-19T10:18:06;7.90;68.50
11387;DHT22;5748;53.102;8.456;2023-01-19T10:20:46;7.90;68.50
11387;DHT22;5748;53.102;8.456;2023-01-19T10:26:14;8.00;68.50
11387;DHT22;5748;53.102;8.456;2023-01-19T10:28:44;8.00;68.50
11387;DHT22;5748;53.102;8.456;2023-01-19T10:31:13;8.00;68.60
11387;DHT22;5748;53.102;8.456;2023-01-19T10:33:43;8.00;68.60
11387;DHT22;5748;53.102;8.456;2023-01-19T10:36:17;8.00;68.60
11387;DHT22;5748;53.102;8.456;2023-01-19T10:38:57;8.10;68.80
11387;DHT22;5748;53.102;8.456;2023-01-19T10:41:28;8.10;68.70
11387;DHT22;5748;53.102;8.456;2023-01-19T10:43:59;8.10;68.70
11387;DHT22;5748;53.102;8.456;2023-01-19T10:46:32;8.20;68.90
11387;DHT22;5748;53.102;8.456;2023-01-19T10:49:02;8.20;68.80
11387;DHT22;5748;53.102;8.456;2023-01-19T10:51:30;8.20;68.80
11387;DHT22;5748;53.102;8.456;2023-01-19T10:54:00;8.20;68.70
11387;DHT22;5748;53.102;8.456;2023-01-19T10:56:31;8.30;69.70
11387;DHT22;5748;53.102;8.456;2023-01-19T10:59:01;8.40;69.20
11387;DHT22;5748;53.102;8.456;2023-01-19T11:01:29;8.30;69.10
11387;DHT22;5748;53.102;8.456;2023-01-19T11:04:19;8.40;69.20
11387;DHT22;5748;53.102;8.456;2023-01-19T11:06:47;8.50;69.30
11387;DHT22;5748;53.102;8.456;2023-01-19T11:09:17;8.50;69.10
11387;DHT22;5748;53.102;8.456;2023-01-19T11:11:48;8.60;69.20
11387;DHT22;5748;53.102;8.456;2023-01-19T11:14:19;8.60;69.20
11387;DHT22;5748;53.102;8.456;2023-01-19T11:16:50;8.70;69.20
11387;DHT22;5748;53.102;8.456;2023-01-19T11:19:24;8.70;69.20
11387;DHT22;5748;53.102;8.456;2023-01-19T11:21:53;8.80;69.20
11387;DHT22;5748;53.102;8.456;2023-01-19T11:24:37;8.80;69.20
11387;DHT22;5748;53.102;8.456;2023-01-19T11:27:04;8.90;69.30
11387;DHT22;5748;53.102;8.456;2023-01-19T11:29:32;8.90;70.10
11387;DHT22;5748;53.102;8.456;2023-01-19T11:32:09;9.00;69.60
11387;DHT22;5748;53.102;8.456;2023-01-19T11:34:38;9.00;69.60
11387;DHT22;5748;53.102;8.456;2023-01-19T11:37:25;9.20;69.70
11387;DHT22;5748;53.102;8.456;2023-01-19T11:39:57;9.20;69.60
11387;DHT22;5748;53.102;8.456;2023-01-19T11:42:25;9.30;69.60
11387;DHT22;5748;53.102;8.456;2023-01-19T11:45:00;9.40;69.60
11387;DHT22;5748;53.102;8.456;2023-01-19T11:47:34;9.40;69.40
11387;DHT22;5748;53.102;8.456;2023-01-19T11:50:06;9.50;69.30
11387;DHT22;5748;53.102;8.456;2023-01-19T11:52:43;9.50;69.10
11387;DHT22;5748;53.102;8.456;2023-01-19T11:55:17;9.60;69.00
11387;DHT22;5748;53.102;8.456;2023-01-19T11:57:49;9.60;69.10
11387;DHT22;5748;53.102;8.456;2023-01-19T12:00:23;9.60;69.40
11387;DHT22;5748;53.102;8.456;2023-01-19T12:02:57;9.70;69.40
11387;DHT22;5748;53.102;8.456;2023-01-19T12:05:33;9.80;69.50
11387;DHT22;5748;53.102;8.456;2023-01-19T12:08:04;9.90;69.30
11387;DHT22;5748;53.102;8.456;2023-01-19T12:10:43;9.90;69.20
11387;DHT22;5748;53.102;8.456;2023-01-19T12:13:17;10.00;68.00
11387;DHT22;5748;53.102;8.456;2023-01-19T12:15:47;10.00;67.90
11387;DHT22;5748;53.102;8.456;2023-01-19T12:18:20;10.00;68.10
11387;DHT22;5748;53.102;8.456;2023-01-19T12:20:50;10.10;68.30
11387;DHT22;5748;53.102;8.456;2023-01-19T12:23:26;10.20;68.90
11387;DHT22;5748;53.102;8.456;2023-01-19T12:26:19;10.40;69.60
11387;DHT22;5748;53.102;8.456;2023-01-19T12:28:53;10.60;69.80
11387;DHT22;5748;53.102;8.456;2023-01-19T12:31:23;10.80;70.10
11387;DHT22;5748;53.102;8.456;2023-01-19T12:33:50;11.00;69.90
11387;DHT22;5748;53.102;8.456;2023-01-19T12:36:42;11.20;69.90
11387;DHT22;5748;53.102;8.456;2023-01-19T12:39:16;11.40;69.10
11387;DHT22;5748;53.102;8.456;2023-01-19T12:41:45;11.50;68.30
11387;DHT22;5748;53.102;8.456;2023-01-19T12:44:23;11.50;67.70
11387;DHT22;5748;53.102;8.456;2023-01-19T12:46:54;11.50;67.20
11387;DHT22;5748;53.102;8.456;2023-01-19T12:49:30;11.60;67.00
11387;DHT22;5748;53.102;8.456;2023-01-19T12:52:27;11.60;66.70
11387;DHT22;5748;53.102;8.456;2023-01-19T12:55:00;11.50;66.10
11387;DHT22;5748;53.102;8.456;2023-01-19T12:57:35;11.50;66.50
11387;DHT22;5748;53.102;8.456;2023-01-19T13:00:06;12.40;67.50
11387;DHT22;5748;53.102;8.456;2023-01-19T13:02:50;11.50;66.40
11387;DHT22;5748;53.102;8.456;2023-01-19T13:05:23;11.50;66.20
11387;DHT22;5748;53.102;8.456;2023-01-19T13:08:13;11.50;66.00
11387;DHT22;5748;53.102;8.456;2023-01-19T13:11:12;11.50;65.50
11387;DHT22;5748;53.102;8.456;2023-01-19T13:17:25;11.50;65.10
11387;DHT22;5748;53.102;8.456;2023-01-19T13:25:51;11.40;64.40
11387;DHT22;5748;53.102;8.456;2023-01-19T13:28:29;11.30;64.30
11387;DHT22;5748;53.102;8.456;2023-01-19T13:30:59;11.30;64.10
11387;DHT22;5748;53.102;8.456;2023-01-19T13:33:35;11.20;64.00
11387;DHT22;5748;53.102;8.456;2023-01-19T13:36:15;11.20;63.20
11387;DHT22;5748;53.102;8.456;2023-01-19T13:38:46;11.10;63.40
11387;DHT22;5748;53.102;8.456;2023-01-19T13:41:14;11.10;63.70
11387;DHT22;5748;53.102;8.456;2023-01-19T13:43:42;11.00;63.00
11387;DHT22;5748;53.102;8.456;2023-01-19T13:46:12;11.00;63.50
11387;DHT22;5748;53.102;8.456;2023-01-19T13:48:52;10.90;63.60
11387;DHT22;5748;53.102;8.456;2023-01-19T13:51:20;10.80;62.90
11387;DHT22;5748;53.102;8.456;2023-01-19T13:53:55;10.80;63.10
11387;DHT22;5748;53.102;8.456;2023-01-19T13:56:24;10.70;62.70
11387;DHT22;5748;53.102;8.456;2023-01-19T13:59:01;10.70;62.80
11387;DHT22;5748;53.102;8.456;2023-01-19T14:01:39;10.60;62.70
11387;DHT22;5748;53.102;8.456;2023-01-19T14:04:23;10.60;63.20
11387;DHT22;5748;53.102;8.456;2023-01-19T14:06:51;10.50;62.80
11387;DHT22;5748;53.102;8.456;2023-01-19T14:09:20;10.50;63.10
11387;DHT22;5748;53.102;8.456;2023-01-19T14:12:05;10.40;63.00
11387;DHT22;5748;53.102;8.456;2023-01-19T14:14:33;10.40;62.50
11387;DHT22;5748;53.102;8.456;2023-01-19T14:17:02;10.30;62.50
11387;DHT22;5748;53.102;8.456;2023-01-19T14:19:46;10.20;62.70
11387;DHT22;5748;53.102;8.456;2023-01-19T14:22:13;10.20;62.50
11387;DHT22;5748;53.102;8.456;2023-01-19T14:24:40;10.10;62.70
11387;DHT22;5748;53.102;8.456;2023-01-19T14:27:15;10.00;62.50
11387;DHT22;5748;53.102;8.456;2023-01-19T14:29:46;10.00;62.70
11387;DHT22;5748;53.102;8.456;2023-01-19T14:32:18;9.90;63.70
11387;DHT22;5748;53.102;8.456;2023-01-19T14:34:48;9.90;63.60
11387;DHT22;5748;53.102;8.456;2023-01-19T14:37:22;9.80;63.70
11387;DHT22;5748;53.102;8.456;2023-01-19T14:39:55;9.80;63.70
11387;DHT22;5748;53.102;8.456;2023-01-19T14:42:27;9.80;63.80
11387;DHT22;5748;53.102;8.456;2023-01-19T14:44:57;9.70;63.70
11387;DHT22;5748;53.102;8.456;2023-01-19T14:47:31;9.60;63.60
11387;DHT22;5748;53.102;8.456;2023-01-19T14:50:05;9.60;63.50
11387;DHT22;5748;53.102;8.456;2023-01-19T14:52:54;9.50;63.40
11387;DHT22;5748;53.102;8.456;2023-01-19T14:55:26;9.40;63.30
11387;DHT22;5748;53.102;8.456;2023-01-19T14:57:57;9.30;63.40
11387;DHT22;5748;53.102;8.456;2023-01-19T15:00:25;9.30;63.60
11387;DHT22;5748;53.102;8.456;2023-01-19T15:02:53;9.20;63.50
11387;DHT22;5748;53.102;8.456;2023-01-19T15:05:22;9.20;63.40
11387;DHT22;5748;53.102;8.456;2023-01-19T15:07:49;9.10;63.30
11387;DHT22;5748;53.102;8.456;2023-01-19T15:10:20;9.10;63.50
11387;DHT22;5748;53.102;8.456;2023-01-19T15:12:52;9.10;63.00
11387;DHT22;5748;53.102;8.456;2023-01-19T15:15:25;9.10;63.30
11387;DHT22;5748;53.102;8.456;2023-01-19T15:17:55;9.00;63.30
11387;DHT22;5748;53.102;8.456;2023-01-19T15:20:22;9.00;63.20
11387;DHT22;5748;53.102;8.456;2023-01-19T15:22:49;8.90;63.20
11387;DHT22;5748;53.102;8.456;2023-01-19T15:25:24;8.90;63.20
11387;DHT22;5748;53.102;8.456;2023-01-19T15:28:00;8.90;63.30
11387;DHT22;5748;53.102;8.456;2023-01-19T15:30:38;8.90;63.10
11387;DHT22;5748;53.102;8.456;2023-01-19T15:33:09;8.80;62.80
11387;DHT22;5748;53.102;8.456;2023-01-19T15:35:38;8.80;63.30
11387;DHT22;5748;53.102;8.456;2023-01-19T15:38:06;8.70;63.30
11387;DHT22;5748;53.102;8.456;2023-01-19T15:40:33;8.70;63.20
11387;DHT22;5748;53.102;8.456;2023-01-19T15:43:00;8.60;63.00
11387;DHT22;5748;53.102;8.456;2023-01-19T15:45:33;8.60;63.10
11387;DHT22;5748;53.102;8.456;2023-01-19T15:48:03;8.50;62.80
11387;DHT22;5748;53.102;8.456;2023-01-19T15:50:34;8.50;63.00
11387;DHT22;5748;53.102;8.456;2023-01-19T15:53:01;8.40;63.00
11387;DHT22;5748;53.102;8.456;2023-01-19T15:55:29;8.40;63.10
11387;DHT22;5748;53.102;8.456;2023-01-19T15:57:57;8.30;63.10
11387;DHT22;5748;53.102;8.456;2023-01-19T16:00:40;8.30;63.10
11387;DHT22;5748;53.102;8.456;2023-01-19T16:03:07;8.30;63.00
11387;DHT22;5748;53.102;8.456;2023-01-19T16:05:35;8.30;63.20
11387;DHT22;5748;53.102;8.456;2023-01-19T16:08:04;8.20;63.10
11387;DHT22;5748;53.102;8.456;2023-01-19T16:10:39;8.20;63.30
11387;DHT22;5748;53.102;8.456;2023-01-19T16:13:07;8.10;63.10
11387;DHT22;5748;53.102;8.456;2023-01-19T16:15:39;8.10;63.30
11387;DHT22;5748;53.102;8.456;2023-01-19T16:18:07;8.00;63.10
11387;DHT22;5748;53.102;8.456;2023-01-19T16:20:36;8.00;63.20
11387;DHT22;5748;53.102;8.456;2023-01-19T16:23:03;8.00;63.10
11387;DHT22;5748;53.102;8.456;2023-01-19T16:25:30;7.90;63.00
11387;DHT22;5748;53.102;8.456;2023-01-19T16:27:57;7.90;62.90
11387;DHT22;5748;53.102;8.456;2023-01-19T16:30:24;7.90;63.00
11387;DHT22;5748;53.102;8.456;2023-01-19T16:32:51;7.80;63.00
11387;DHT22;5748;53.102;8.456;2023-01-19T16:35:18;7.80;63.10
11387;DHT22;5748;53.102;8.456;2023-01-19T16:37:50;7.90;63.10
11387;DHT22;5748;53.102;8.456;2023-01-19T16:40:17;8.00;63.10
11387;DHT22;5748;53.102;8.456;2023-01-19T16:42:47;7.60;62.80
11387;DHT22;5748;53.102;8.456;2023-01-19T16:45:14;7.60;62.70